Latest Coastal Weather Observations for Taree Airport

IDN60701

Issued at 5:21 am EDT Monday 5 December 2016 (issued every 10 minutes, with the page automatically refreshed every 10 minutes)

About coastal observations | Map of coastal stations | Coastal observations for NSW | Marine services | Other Formats
Station Details ID: 060141 Name: TAREE AIRPORT AWS Lat: -31.89 Lon: 152.51 Height: 8.0 m
Data from the previous 72 hours. | See also: Recent months at Taree Airport
Date/Time
EDT
Temp
°C
Wind Pressure Rain since
9am
mm
Weather Cloud Vis
km
Sea
Height
m
Swell
Dir  Spd
kts
Gust
kts
hPa Trend Height
m
Period
s
Dir
05/05:18am 18.4 NW 2 4 1009.4 - 0.0 - - 6 - - - -
05/05:08am 18.3 NW 3 4 1009.3 - 0.0 - - 5 - - - -
05/05:03am 18.5 NNW 1 4 1009.4 - 0.0 - - 6 - - - -
05/05:00am 18.3 NNW 1 3 1009.4 - 0.0 - - 6 - - - -
05/04:30am 18.4 CALM 0 0 1009.3 - 0.0 - Partly cloudy 6 - - - -
05/04:00am 18.8 N 4 4 1009.3 - 0.0 - - 6 - - - -
05/03:48am 18.8 NNE 2 4 1009.5 - 0.0 - - 5 - - - -
05/03:42am 19.4 NNE 3 4 1009.6 - 0.0 - - 8 - - - -
05/03:30am 19.3 NNE 3 4 1009.7 - 0.0 - - 5 - - - -
05/03:23am 19.0 NE 4 6 1009.7 - 0.0 - - 5 - - - -
05/03:14am 18.5 NE 1 5 1009.8 - 0.0 - - 7 - - - -
05/03:00am 19.6 NE 1 4 1010.0 - 0.0 - Mostly clear 0.5 - - - -
05/02:30am 19.7 CALM 0 0 1010.5 - 0.0 - - 1 - - - -
05/02:23am 19.7 CALM 0 0 1010.6 - 0.0 - - 5 - - - -
05/02:18am 19.5 NE 1 3 1010.7 - 0.0 - - 7 - - - -
05/02:00am 18.9 NE 4 5 1011.0 - 0.0 - Partly cloudy 0.6 - - - -
05/01:38am 19.4 NE 4 4 1011.4 - 0.0 - - 5 - - - -
05/01:30am 19.1 NE 3 4 1011.4 - 0.0 - - 9 - - - -
05/01:00am 19.9 CALM 0 2 1011.8 - 0.0 - - 8 - - - -
05/12:30am 20.0 CALM 0 0 1012.1 - 0.0 - - 10 - - - -
05/12:00am 20.4 CALM 0 0 1012.4 - 0.0 - Mostly clear 10 - - - -
 
Date/Time
EDT
Temp
°C
Wind Pressure Rain since
9am
mm
Weather Cloud Vis
km
Sea
Height
m
Swell
Dir  Spd
kts
Gust
kts
hPa Trend Height
m
Period
s
Dir
04/11:30pm 20.5 CALM 0 0 1012.6 - 0.0 - - 10 - - - -
04/11:00pm 21.0 CALM 0 0 1013.0 - 0.0 - - 10 - - - -
04/10:30pm 21.5 NE 4 5 1013.0 - 0.0 - - 10 - - - -
04/10:00pm 22.0 NE 6 7 1013.0 - 0.0 - - 10 - - - -
04/09:30pm 22.3 ENE 7 9 1013.1 - 0.0 - - 10 - - - -
04/09:00pm 22.4 ENE 8 9 1013.3 - 0.0 - Mostly cloudy 10 - - - -
04/08:30pm 22.4 ENE 8 10 1013.2 - 0.0 - - 10 - - - -
04/08:00pm 22.6 ENE 8 11 1013.4 - 0.0 - - 10 - - - -
04/07:30pm 23.2 E 9 11 1013.1 - 0.0 - - 10 - - - -
04/07:00pm 24.1 E 8 13 1013.2 - 0.0 - - 10 - - - -
04/06:30pm 24.7 E 9 13 1012.9 - 0.0 - - 10 - - - -
04/06:00pm 25.5 E 10 14 1012.5 - 0.0 - - 10 - - - -
04/05:30pm 25.7 E 11 14 1012.7 - 0.0 - - 10 - - - -
04/05:00pm 25.7 E 9 12 1012.7 - 0.0 - - 10 - - - -
04/04:30pm 25.8 E 11 16 1012.7 - 0.0 - - 10 - - - -
04/04:00pm 26.0 E 10 14 1013.0 - 0.0 - - 10 - - - -
04/03:30pm 25.9 E 11 15 1013.1 - 0.0 - - 10 - - - -
04/03:00pm 27.1 ESE 10 14 1013.2 - 0.0 - - 10 - - - -
04/02:30pm 28.4 E 10 16 1013.1 - 0.0 - - 10 - - - -
04/02:00pm 28.2 E 9 14 1013.4 - 0.0 - - 10 - - - -
04/01:30pm 27.6 ESE 9 14 1013.5 - 0.0 - - 10 - - - -
04/01:00pm 26.9 E 8 11 1013.9 - 0.0 - Partly cloudy 10 - - - -
04/12:30pm 27.6 ENE 6 9 1014.2 - 0.0 - Partly cloudy 10 - - - -
04/12:00pm 26.9 NE 4 8 1014.8 - 0.0 - Partly cloudy 10 - - - -
04/11:30am 25.8 N 5 8 1015.2 - 0.0 - Cloudy 10 - - - -
04/11:00am 24.7 NE 5 6 1015.5 - 0.0 - Cloudy 10 - - - -
04/10:30am 24.4 WSW 1 4 1015.5 - 0.0 - Cloudy 10 - - - -
04/10:00am 23.6 SW 5 7 1015.9 - 0.0 - Cloudy 10 - - - -
04/09:30am 23.4 SSW 4 6 1016.0 - 0.0 - Cloudy 10 - - - -
04/09:00am 23.1 WSW 5 6 1016.1 - 0.0 - Cloudy 10 - - - -
04/08:30am 22.9 SSW 4 6 1016.0 - 0.0 - Partly cloudy 10 - - - -
04/08:00am 22.2 NW 4 5 1015.7 - 0.0 - Cloudy 10 - - - -
04/07:30am 20.2 W 5 6 1015.8 - 0.0 - Partly cloudy 10 - - - -
04/07:00am 18.9 WNW 5 6 1015.4 - 0.0 - - 10 - - - -
04/06:30am 18.2 NNW 3 4 1015.3 - 0.0 - - 10 - - - -
04/06:00am 17.5 NNW 2 5 1015.1 - 0.0 - - 7 - - - -
04/05:41am 16.4 CALM 0 0 1014.8 - 0.0 - - 8 - - - -
04/05:30am 16.2 CALM 0 0 1014.7 - 0.0 - - 5 - - - -
04/05:08am 16.3 CALM 0 0 1014.6 - 0.0 - - 5 - - - -
04/05:00am 16.9 CALM 0 0 1014.5 - 0.0 - - 9 - - - -
04/04:30am 16.9 CALM 0 0 1014.3 - 0.0 - - 10 - - - -
04/04:13am 17.1 NNW 3 4 1014.4 - 0.0 - - 9 - - - -
04/04:00am 17.1 CALM 0 0 1014.2 - 0.0 - - 5 - - - -
04/03:58am 17.0 CALM 0 0 1014.2 - 0.0 - - 5 - - - -
04/03:54am 16.9 CALM 0 0 1014.2 - 0.0 - - 7 - - - -
04/03:30am 17.0 CALM 0 0 1014.0 - 0.0 - - 2 - - - -
04/03:00am 17.4 CALM 0 0 1014.1 - 0.0 - - 4 - - - -
04/02:55am 17.1 CALM 0 0 1014.1 - 0.0 - - 5 - - - -
04/02:30am 17.7 WSW 1 4 1014.1 - 0.0 - - 9 - - - -
04/02:00am 18.1 CALM 0 0 1014.2 - 0.0 - - 10 - - - -
04/01:42am 18.2 CALM 0 0 1014.2 - 0.0 - - 10 - - - -
04/01:30am 18.2 CALM 0 0 1014.3 - 0.0 - - 5 - - - -
04/01:24am 17.9 CALM 0 0 1014.3 - 0.0 - - 5 - - - -
04/01:00am 18.9 S 3 4 1014.7 - 0.0 - - 10 - - - -
04/12:30am 19.4 N 2 6 1014.9 - 0.0 - - 10 - - - -
04/12:00am 18.8 CALM 0 0 1015.5 - 0.0 - - 10 - - - -
 
Date/Time
EDT
Temp
°C
Wind Pressure Rain since
9am
mm
Weather Cloud Vis
km
Sea
Height
m
Swell
Dir  Spd
kts
Gust
kts
hPa Trend Height
m
Period
s
Dir
03/11:30pm 19.0 CALM 0 0 1015.4 - 0.0 - - 10 - - - -
03/11:00pm 19.1 CALM 0 0 1015.6 - 0.0 - Partly cloudy 10 - - - -
03/10:30pm 19.2 CALM 0 0 1015.6 - 0.0 - Partly cloudy 10 - - - -
03/10:00pm 19.7 NW 3 4 1015.5 - 0.0 - - 10 - - - -
03/09:30pm 20.6 WNW 2 5 1015.4 - 0.0 - - 10 - - - -
03/09:00pm 21.5 SSE 3 5 1015.4 - 0.0 - Mostly clear 10 - - - -
03/08:30pm 21.9 SE 5 6 1015.2 - 0.0 - Cloudy 10 - - - -
03/08:00pm 21.8 E 5 6 1015.5 - 0.0 - Cloudy 10 - - - -
03/07:30pm 22.1 E 5 7 1015.5 - 0.0 - Partly cloudy 10 - - - -
03/07:00pm 22.7 ESE 6 8 1015.1 - 0.0 - Partly cloudy 10 - - - -
03/06:30pm 23.0 ESE 8 11 1014.3 - 0.0 - Partly cloudy 10 - - - -
03/06:00pm 23.2 SE 10 14 1013.7 - 0.0 - Partly cloudy 10 - - - -
03/05:30pm 24.1 SE 12 16 1013.4 - 0.0 - Partly cloudy 10 - - - -
03/05:00pm 24.2 SE 13 18 1013.0 - 0.0 - Partly cloudy 10 - - - -
03/04:30pm 25.3 SE 14 18 1013.2 - 0.0 - Partly cloudy 10 - - - -
03/04:00pm 25.5 SE 14 20 1013.1 - 0.0 - - 10 - - - -
03/03:30pm 25.1 SSE 15 20 1013.6 - 0.0 - - 10 - - - -
03/03:00pm 26.0 SE 14 18 1013.5 - 0.0 - - 10 - - - -
03/02:30pm 26.1 SE 14 18 1013.7 - 0.0 - - 10 - - - -
03/02:00pm 26.0 SE 14 20 1013.8 - 0.0 - - 10 - - - -
03/01:30pm 26.9 SE 16 22 1013.8 - 0.0 - - 10 - - - -
03/01:00pm 25.3 SSE 17 22 1014.1 - 0.0 - - 10 - - - -
03/12:30pm 25.3 SSE 16 21 1014.3 - 0.0 - - 10 - - - -
03/12:00pm 26.6 ESE 15 20 1014.2 - 0.0 - - 10 - - - -
03/11:30am 26.6 ESE 14 17 1014.1 - 0.0 - Partly cloudy 10 - - - -
03/11:00am 26.9 SE 8 14 1014.4 - 0.0 - Partly cloudy 10 - - - -
03/10:30am 27.1 S 8 12 1014.6 - 0.0 - Partly cloudy 10 - - - -
03/10:00am 25.8 SSE 7 11 1014.8 - 0.0 - Partly cloudy 10 - - - -
03/09:30am 25.4 SSW 7 10 1014.8 - 0.0 - Partly cloudy 10 - - - -
03/09:00am 25.9 SSW 9 12 1014.5 - 0.4 - Mostly cloudy 10 - - - -
03/08:30am 24.0 SW 7 11 1014.3 - 0.4 - Partly cloudy 10 - - - -
03/08:00am 23.9 W 7 9 1014.2 - 0.4 - Partly cloudy 10 - - - -
03/07:30am 22.2 W 6 8 1013.9 - 0.4 - - 10 - - - -
03/07:00am 20.7 WNW 6 7 1013.6 - 0.4 - - 10 - - - -
03/06:30am 19.3 WNW 5 7 1013.0 - 0.4 - - 10 - - - -
03/06:00am 17.5 NNW 3 4 1012.4 - 0.4 - - 10 - - - -
03/05:30am 18.7 ENE 1 3 1011.7 - 0.4 - - 10 - - - -
03/05:00am 19.5 SSE 4 6 1011.3 - 0.4 - - 10 - - - -
03/04:30am 20.0 S 6 8 1010.9 - 0.4 - - 10 - - - -
03/04:00am 19.8 SSW 7 16 1010.7 - 0.4 - - 10 - - - -
03/03:30am 18.0 CALM 0 0 1010.7 - 0.4 - - 10 - - - -
03/03:00am 17.9 N 3 6 1010.7 - 0.4 - Mostly clear 10 - - - -
03/02:30am 17.8 NE 4 5 1011.0 - 0.4 - - 10 - - - -
03/02:00am 20.0 WSW 4 6 1011.5 - 0.4 - - 10 - - - -
03/01:30am 20.5 W 2 6 1011.6 - 0.4 - - 10 - - - -
03/01:00am 20.3 WNW 2 4 1011.5 - 0.4 - - 10 - - - -
03/12:30am 21.1 WNW 5 5 1011.9 - 0.4 - - 10 - - - -
03/12:00am 21.0 SW 5 7 1012.4 - 0.4 - Partly cloudy 10 - - - -
 
Date/Time
EDT
Temp
°C
Wind Pressure Rain since
9am
mm
Weather Cloud Vis
km
Sea
Height
m
Swell
Dir  Spd
kts
Gust
kts
hPa Trend Height
m
Period
s
Dir
02/11:30pm 20.9 W 4 5 1012.4 - 0.4 - - 10 - - - -
02/11:00pm 21.3 W 6 8 1012.6 - 0.4 - - 10 - - - -
02/10:30pm 21.3 W 5 6 1012.6 - 0.4 - - 10 - - - -
02/10:00pm 21.0 CALM 0 0 1012.8 - 0.4 - - 10 - - - -
02/09:30pm 21.3 WNW 4 6 1012.8 - 0.4 - - 10 - - - -
02/09:00pm 21.9 NNW 6 7 1012.5 - 0.4 - - 10 - - - -
02/08:30pm 22.4 SSW 5 7 1012.3 - 0.4 - - 10 - - - -
02/08:00pm 22.6 S 7 10 1011.8 - 0.4 - - 10 - - - -
02/07:30pm 22.3 E 5 7 1011.0 - 0.4 - Partly cloudy 10 - - - -
02/07:00pm 24.1 WNW 6 9 1011.6 - 0.4 - Partly cloudy 10 - - - -
02/06:45pm 25.3 NW 4 13 1011.8 - 0.0 - Partly cloudy 10 - - - -
02/06:30pm 24.7 NE 8 10 1009.8 - 0.0 - Partly cloudy 10 - - - -
02/06:00pm 28.7 E 5 7 1009.5 - 0.0 - Partly cloudy 10 - - - -
02/05:30pm 30.2 ENE 10 13 1008.1 - 0.0 - - 10 - - - -
02/05:00pm 30.7 ENE 9 13 1008.0 - 0.0 - - 10 - - - -
02/04:30pm 31.1 ESE 9 14 1008.0 - 0.0 - - 10 - - - -
02/04:00pm 30.9 SE 12 16 1007.9 - 0.0 - - 10 - - - -
02/03:30pm 31.3 SE 12 16 1007.7 - 0.0 - - 10 - - - -
02/03:00pm 31.6 ESE 12 17 1007.6 - 0.0 - - 10 - - - -
02/02:30pm 32.4 ESE 10 14 1007.5 - 0.0 - - 10 - - - -
02/02:00pm 31.8 ESE 10 14 1007.7 - 0.0 - - 10 - - - -
02/01:30pm 31.4 ESE 9 13 1007.9 - 0.0 - - 10 - - - -
02/01:00pm 30.9 ESE 9 13 1007.9 - 0.0 - - 10 - - - -
02/12:30pm 30.4 ESE 10 13 1008.2 - 0.0 - - 10 - - - -
02/12:00pm 30.6 SSE 8 13 1008.3 - 0.0 - - 10 - - - -
02/11:30am 31.1 WSW 5 7 1008.4 - 0.0 - - 10 - - - -
02/11:00am 29.8 SSE 4 6 1008.6 - 0.0 - - 10 - - - -
02/10:30am 28.0 SSE 4 6 1008.6 - 0.0 - - 10 - - - -
02/10:00am 26.5 W 3 4 1008.6 - 0.0 - - 10 - - - -
02/09:30am 26.1 NE 3 5 1008.5 - 0.0 - - 10 - - - -
02/09:00am 24.4 WSW 1 4 1008.7 - 2.6 - - 10 - - - -
02/08:30am 22.1 WSW 4 5 1009.0 - 2.6 - - 10 - - - -
02/08:00am 20.7 SW 1 4 1008.9 - 2.6 - - 10 - - - -
02/07:30am 19.3 CALM 0 0 1008.7 - 2.6 - - 10 - - - -
02/07:00am 17.6 CALM 0 0 1008.5 - 2.6 - - 10 - - - -
02/06:30am 15.6 SW 4 4 1008.2 - 2.6 - - 10 - - - -
02/06:00am 15.3 CALM 0 0 1007.9 - 2.6 - - 10 - - - -
02/05:30am 14.7 CALM 0 0 1007.5 - 2.6 - - 10 - - - -

Other Formats:

Comma delimited format used in spreadsheet applications
http://www.bom.gov.au/fwo/IDN60701/IDN60701.95784.axf

JavaScript Object Notation format (JSON) in row-major order
http://www.bom.gov.au/fwo/IDN60701/IDN60701.95784.json